sensor_id;sensor_type;location;lat;lon;timestamp;P1;durP1;ratioP1;P2;durP2;ratioP2
3427;SDS011;1727;42.624;23.406;2023-05-23T00:00:09;5.57;;;3.50;;
3427;SDS011;1727;42.624;23.406;2023-05-23T00:02:38;6.40;;;3.30;;
3427;SDS011;1727;42.624;23.406;2023-05-23T00:05:07;5.03;;;3.37;;
3427;SDS011;1727;42.624;23.406;2023-05-23T00:07:34;5.70;;;3.30;;
3427;SDS011;1727;42.624;23.406;2023-05-23T00:10:01;4.03;;;3.37;;
3427;SDS011;1727;42.624;23.406;2023-05-23T00:12:28;4.17;;;3.27;;
3427;SDS011;1727;42.624;23.406;2023-05-23T00:14:55;3.67;;;3.37;;
3427;SDS011;1727;42.624;23.406;2023-05-23T00:17:21;5.33;;;4.93;;
3427;SDS011;1727;42.624;23.406;2023-05-23T00:19:49;11.33;;;3.60;;
3427;SDS011;1727;42.624;23.406;2023-05-23T00:22:18;3.70;;;3.40;;
3427;SDS011;1727;42.624;23.406;2023-05-23T00:24:45;6.57;;;3.53;;
3427;SDS011;1727;42.624;23.406;2023-05-23T00:27:11;3.90;;;3.50;;
3427;SDS011;1727;42.624;23.406;2023-05-23T00:29:38;6.67;;;3.57;;
3427;SDS011;1727;42.624;23.406;2023-05-23T00:32:05;5.03;;;3.90;;
3427;SDS011;1727;42.624;23.406;2023-05-23T00:34:32;3.70;;;3.20;;
3427;SDS011;1727;42.624;23.406;2023-05-23T00:37:00;4.80;;;2.90;;
3427;SDS011;1727;42.624;23.406;2023-05-23T00:39:28;3.33;;;3.03;;
3427;SDS011;1727;42.624;23.406;2023-05-23T00:41:55;3.50;;;3.20;;
3427;SDS011;1727;42.624;23.406;2023-05-23T00:44:22;3.33;;;3.13;;
3427;SDS011;1727;42.624;23.406;2023-05-23T00:46:50;3.10;;;2.83;;
3427;SDS011;1727;42.624;23.406;2023-05-23T00:49:19;5.03;;;2.30;;
3427;SDS011;1727;42.624;23.406;2023-05-23T00:51:46;3.27;;;2.87;;
3427;SDS011;1727;42.624;23.406;2023-05-23T00:54:13;3.07;;;2.70;;
3427;SDS011;1727;42.624;23.406;2023-05-23T00:56:45;3.80;;;3.50;;
3427;SDS011;1727;42.624;23.406;2023-05-23T00:59:12;3.53;;;3.23;;
3427;SDS011;1727;42.624;23.406;2023-05-23T01:01:40;3.63;;;2.93;;
3427;SDS011;1727;42.624;23.406;2023-05-23T01:04:10;3.30;;;3.10;;
3427;SDS011;1727;42.624;23.406;2023-05-23T01:06:38;3.77;;;3.37;;
3427;SDS011;1727;42.624;23.406;2023-05-23T01:09:05;5.20;;;3.50;;
3427;SDS011;1727;42.624;23.406;2023-05-23T01:11:34;5.53;;;3.23;;
3427;SDS011;1727;42.624;23.406;2023-05-23T01:14:09;5.40;;;2.80;;
3427;SDS011;1727;42.624;23.406;2023-05-23T01:16:40;5.23;;;3.30;;
3427;SDS011;1727;42.624;23.406;2023-05-23T01:19:16;4.40;;;4.10;;
3427;SDS011;1727;42.624;23.406;2023-05-23T01:22:12;3.20;;;2.90;;
3427;SDS011;1727;42.624;23.406;2023-05-23T01:24:48;3.30;;;3.00;;
3427;SDS011;1727;42.624;23.406;2023-05-23T01:27:23;5.33;;;3.50;;
3427;SDS011;1727;42.624;23.406;2023-05-23T01:30:04;3.30;;;3.00;;
3427;SDS011;1727;42.624;23.406;2023-05-23T01:32:35;4.13;;;3.43;;
3427;SDS011;1727;42.624;23.406;2023-05-23T01:35:03;3.10;;;2.90;;
3427;SDS011;1727;42.624;23.406;2023-05-23T01:37:31;3.43;;;3.10;;
3427;SDS011;1727;42.624;23.406;2023-05-23T01:39:58;3.30;;;3.00;;
3427;SDS011;1727;42.624;23.406;2023-05-23T01:42:25;4.00;;;3.67;;
3427;SDS011;1727;42.624;23.406;2023-05-23T01:44:54;5.27;;;3.50;;
3427;SDS011;1727;42.624;23.406;2023-05-23T01:47:23;3.43;;;3.13;;
3427;SDS011;1727;42.624;23.406;2023-05-23T01:49:50;4.10;;;3.00;;
3427;SDS011;1727;42.624;23.406;2023-05-23T01:52:19;3.43;;;3.13;;
3427;SDS011;1727;42.624;23.406;2023-05-23T01:54:47;3.40;;;3.10;;
3427;SDS011;1727;42.624;23.406;2023-05-23T01:57:15;3.80;;;3.40;;
3427;SDS011;1727;42.624;23.406;2023-05-23T01:59:42;3.60;;;3.30;;
3427;SDS011;1727;42.624;23.406;2023-05-23T02:02:10;4.43;;;3.07;;
3427;SDS011;1727;42.624;23.406;2023-05-23T02:04:37;3.53;;;2.83;;
3427;SDS011;1727;42.624;23.406;2023-05-23T02:07:04;6.33;;;3.33;;
3427;SDS011;1727;42.624;23.406;2023-05-23T02:09:31;8.17;;;4.10;;
3427;SDS011;1727;42.624;23.406;2023-05-23T02:11:58;3.37;;;3.17;;
3427;SDS011;1727;42.624;23.406;2023-05-23T02:14:24;8.73;;;4.17;;
3427;SDS011;1727;42.624;23.406;2023-05-23T02:16:52;6.13;;;3.70;;
3427;SDS011;1727;42.624;23.406;2023-05-23T02:19:20;5.27;;;3.63;;
3427;SDS011;1727;42.624;23.406;2023-05-23T02:21:47;4.10;;;3.80;;
3427;SDS011;1727;42.624;23.406;2023-05-23T02:24:14;5.63;;;3.33;;
3427;SDS011;1727;42.624;23.406;2023-05-23T02:26:40;3.67;;;3.07;;
3427;SDS011;1727;42.624;23.406;2023-05-23T02:29:07;4.20;;;3.70;;
3427;SDS011;1727;42.624;23.406;2023-05-23T02:31:34;3.80;;;3.00;;
3427;SDS011;1727;42.624;23.406;2023-05-23T02:34:01;3.43;;;3.10;;
3427;SDS011;1727;42.624;23.406;2023-05-23T02:36:29;7.60;;;3.20;;
3427;SDS011;1727;42.624;23.406;2023-05-23T02:38:57;4.50;;;3.57;;
3427;SDS011;1727;42.624;23.406;2023-05-23T02:41:24;3.53;;;3.23;;
3427;SDS011;1727;42.624;23.406;2023-05-23T02:43:51;3.17;;;2.80;;
3427;SDS011;1727;42.624;23.406;2023-05-23T02:46:17;3.33;;;3.03;;
3427;SDS011;1727;42.624;23.406;2023-05-23T02:48:44;3.00;;;2.80;;
3427;SDS011;1727;42.624;23.406;2023-05-23T02:51:11;6.40;;;2.90;;
3427;SDS011;1727;42.624;23.406;2023-05-23T02:53:40;3.83;;;3.30;;
3427;SDS011;1727;42.624;23.406;2023-05-23T02:56:06;3.07;;;2.80;;
3427;SDS011;1727;42.624;23.406;2023-05-23T02:58:34;3.40;;;3.17;;
3427;SDS011;1727;42.624;23.406;2023-05-23T03:01:01;3.97;;;3.30;;
3427;SDS011;1727;42.624;23.406;2023-05-23T03:03:27;8.50;;;4.70;;
3427;SDS011;1727;42.624;23.406;2023-05-23T03:05:55;9.20;;;5.80;;
3427;SDS011;1727;42.624;23.406;2023-05-23T03:08:22;21.10;;;7.73;;
3427;SDS011;1727;42.624;23.406;2023-05-23T03:10:50;15.67;;;8.90;;
3427;SDS011;1727;42.624;23.406;2023-05-23T03:13:18;10.50;;;8.13;;
3427;SDS011;1727;42.624;23.406;2023-05-23T03:15:44;32.40;;;8.20;;
3427;SDS011;1727;42.624;23.406;2023-05-23T03:18:11;19.53;;;8.37;;
3427;SDS011;1727;42.624;23.406;2023-05-23T03:20:38;35.30;;;9.70;;
3427;SDS011;1727;42.624;23.406;2023-05-23T03:23:05;14.17;;;9.87;;
3427;SDS011;1727;42.624;23.406;2023-05-23T03:25:31;39.03;;;11.90;;
3427;SDS011;1727;42.624;23.406;2023-05-23T03:28:00;20.90;;;9.80;;
3427;SDS011;1727;42.624;23.406;2023-05-23T03:30:26;44.00;;;11.23;;
3427;SDS011;1727;42.624;23.406;2023-05-23T03:32:53;34.23;;;9.77;;
3427;SDS011;1727;42.624;23.406;2023-05-23T03:35:20;35.30;;;11.07;;
3427;SDS011;1727;42.624;23.406;2023-05-23T03:37:47;22.17;;;10.07;;
3427;SDS011;1727;42.624;23.406;2023-05-23T03:40:13;33.83;;;10.80;;
3427;SDS011;1727;42.624;23.406;2023-05-23T03:42:40;25.70;;;10.30;;
3427;SDS011;1727;42.624;23.406;2023-05-23T03:45:08;24.53;;;12.47;;
3427;SDS011;1727;42.624;23.406;2023-05-23T03:47:35;12.97;;;10.07;;
3427;SDS011;1727;42.624;23.406;2023-05-23T03:50:02;22.10;;;8.77;;
3427;SDS011;1727;42.624;23.406;2023-05-23T03:52:29;21.13;;;9.83;;
3427;SDS011;1727;42.624;23.406;2023-05-23T03:54:56;11.17;;;8.80;;
3427;SDS011;1727;42.624;23.406;2023-05-23T03:57:23;11.00;;;8.90;;
3427;SDS011;1727;42.624;23.406;2023-05-23T03:59:49;16.43;;;9.40;;
3427;SDS011;1727;42.624;23.406;2023-05-23T04:02:18;14.13;;;9.10;;
3427;SDS011;1727;42.624;23.406;2023-05-23T04:04:45;35.10;;;9.13;;
3427;SDS011;1727;42.624;23.406;2023-05-23T04:07:12;20.03;;;9.80;;
3427;SDS011;1727;42.624;23.406;2023-05-23T04:09:39;12.60;;;8.63;;
3427;SDS011;1727;42.624;23.406;2023-05-23T04:12:06;16.70;;;9.03;;
3427;SDS011;1727;42.624;23.406;2023-05-23T04:14:34;37.83;;;9.37;;
3427;SDS011;1727;42.624;23.406;2023-05-23T04:17:01;15.13;;;7.60;;
3427;SDS011;1727;42.624;23.406;2023-05-23T04:19:29;17.40;;;8.03;;
3427;SDS011;1727;42.624;23.406;2023-05-23T04:21:56;12.63;;;8.37;;
3427;SDS011;1727;42.624;23.406;2023-05-23T04:24:23;13.20;;;7.70;;
3427;SDS011;1727;42.624;23.406;2023-05-23T04:26:50;48.97;;;9.70;;
3427;SDS011;1727;42.624;23.406;2023-05-23T04:29:16;48.07;;;9.97;;
3427;SDS011;1727;42.624;23.406;2023-05-23T04:31:44;20.33;;;8.43;;
3427;SDS011;1727;42.624;23.406;2023-05-23T04:34:11;41.73;;;9.60;;
3427;SDS011;1727;42.624;23.406;2023-05-23T04:36:39;98.07;;;11.67;;
3427;SDS011;1727;42.624;23.406;2023-05-23T04:39:08;17.67;;;9.60;;
3427;SDS011;1727;42.624;23.406;2023-05-23T04:41:35;23.97;;;8.63;;
3427;SDS011;1727;42.624;23.406;2023-05-23T04:44:02;22.33;;;10.43;;
3427;SDS011;1727;42.624;23.406;2023-05-23T04:46:30;24.57;;;9.73;;
3427;SDS011;1727;42.624;23.406;2023-05-23T04:48:56;20.63;;;8.40;;
3427;SDS011;1727;42.624;23.406;2023-05-23T04:51:24;12.73;;;8.13;;
3427;SDS011;1727;42.624;23.406;2023-05-23T04:53:52;13.30;;;8.97;;
3427;SDS011;1727;42.624;23.406;2023-05-23T04:56:19;10.63;;;7.60;;
3427;SDS011;1727;42.624;23.406;2023-05-23T04:58:46;10.50;;;7.13;;
3427;SDS011;1727;42.624;23.406;2023-05-23T05:01:13;11.33;;;8.33;;
3427;SDS011;1727;42.624;23.406;2023-05-23T05:03:40;10.80;;;7.97;;
3427;SDS011;1727;42.624;23.406;2023-05-23T05:06:07;7.73;;;6.83;;
3427;SDS011;1727;42.624;23.406;2023-05-23T05:08:33;10.43;;;6.80;;
3427;SDS011;1727;42.624;23.406;2023-05-23T05:11:02;14.60;;;7.70;;
3427;SDS011;1727;42.624;23.406;2023-05-23T05:13:29;11.70;;;6.70;;
3427;SDS011;1727;42.624;23.406;2023-05-23T05:15:55;9.53;;;6.67;;
3427;SDS011;1727;42.624;23.406;2023-05-23T05:18:23;11.20;;;7.13;;
3427;SDS011;1727;42.624;23.406;2023-05-23T05:20:50;12.13;;;7.23;;
3427;SDS011;1727;42.624;23.406;2023-05-23T05:23:17;11.43;;;7.20;;
3427;SDS011;1727;42.624;23.406;2023-05-23T05:25:45;13.60;;;8.70;;
3427;SDS011;1727;42.624;23.406;2023-05-23T05:28:13;14.90;;;8.00;;
3427;SDS011;1727;42.624;23.406;2023-05-23T05:30:40;10.90;;;7.23;;
3427;SDS011;1727;42.624;23.406;2023-05-23T05:33:07;14.70;;;9.03;;
3427;SDS011;1727;42.624;23.406;2023-05-23T05:35:34;11.47;;;7.67;;
3427;SDS011;1727;42.624;23.406;2023-05-23T05:38:02;12.33;;;8.30;;
3427;SDS011;1727;42.624;23.406;2023-05-23T05:40:30;12.00;;;8.93;;
3427;SDS011;1727;42.624;23.406;2023-05-23T05:42:56;15.47;;;8.70;;
3427;SDS011;1727;42.624;23.406;2023-05-23T05:45:24;12.13;;;7.97;;
3427;SDS011;1727;42.624;23.406;2023-05-23T05:47:51;13.77;;;9.27;;
3427;SDS011;1727;42.624;23.406;2023-05-23T05:50:18;13.13;;;8.37;;
3427;SDS011;1727;42.624;23.406;2023-05-23T05:52:45;10.10;;;7.47;;
3427;SDS011;1727;42.624;23.406;2023-05-23T05:55:12;12.43;;;10.13;;
3427;SDS011;1727;42.624;23.406;2023-05-23T05:57:39;15.23;;;7.80;;
3427;SDS011;1727;42.624;23.406;2023-05-23T06:00:07;28.80;;;8.27;;
3427;SDS011;1727;42.624;23.406;2023-05-23T06:02:40;8.83;;;7.83;;
3427;SDS011;1727;42.624;23.406;2023-05-23T06:05:08;17.57;;;8.50;;
3427;SDS011;1727;42.624;23.406;2023-05-23T06:07:36;10.07;;;7.50;;
3427;SDS011;1727;42.624;23.406;2023-05-23T06:10:03;11.03;;;8.60;;
3427;SDS011;1727;42.624;23.406;2023-05-23T06:12:31;12.33;;;8.20;;
3427;SDS011;1727;42.624;23.406;2023-05-23T06:14:58;10.10;;;8.00;;
3427;SDS011;1727;42.624;23.406;2023-05-23T06:17:24;12.90;;;8.97;;
3427;SDS011;1727;42.624;23.406;2023-05-23T06:19:53;12.27;;;8.50;;
3427;SDS011;1727;42.624;23.406;2023-05-23T06:22:19;12.67;;;8.20;;
3427;SDS011;1727;42.624;23.406;2023-05-23T06:24:46;15.50;;;9.63;;
3427;SDS011;1727;42.624;23.406;2023-05-23T06:27:13;12.60;;;9.20;;
3427;SDS011;1727;42.624;23.406;2023-05-23T06:29:40;9.67;;;8.10;;
3427;SDS011;1727;42.624;23.406;2023-05-23T06:32:06;12.23;;;9.00;;
3427;SDS011;1727;42.624;23.406;2023-05-23T06:34:33;15.97;;;9.07;;
3427;SDS011;1727;42.624;23.406;2023-05-23T06:37:01;13.97;;;9.30;;
3427;SDS011;1727;42.624;23.406;2023-05-23T06:39:28;11.80;;;9.20;;
3427;SDS011;1727;42.624;23.406;2023-05-23T06:41:55;11.93;;;9.30;;
3427;SDS011;1727;42.624;23.406;2023-05-23T06:44:21;12.50;;;9.30;;
3427;SDS011;1727;42.624;23.406;2023-05-23T06:46:48;13.90;;;9.40;;
3427;SDS011;1727;42.624;23.406;2023-05-23T06:49:15;13.30;;;9.63;;
3427;SDS011;1727;42.624;23.406;2023-05-23T06:51:42;15.50;;;10.50;;
3427;SDS011;1727;42.624;23.406;2023-05-23T06:54:10;10.23;;;8.50;;
3427;SDS011;1727;42.624;23.406;2023-05-23T06:56:36;13.00;;;10.50;;
3427;SDS011;1727;42.624;23.406;2023-05-23T06:59:03;16.00;;;10.17;;
3427;SDS011;1727;42.624;23.406;2023-05-23T07:01:30;15.80;;;8.63;;
3427;SDS011;1727;42.624;23.406;2023-05-23T07:03:57;12.33;;;9.17;;
3427;SDS011;1727;42.624;23.406;2023-05-23T07:06:23;8.33;;;7.50;;
3427;SDS011;1727;42.624;23.406;2023-05-23T07:08:52;15.23;;;7.60;;
3427;SDS011;1727;42.624;23.406;2023-05-23T07:11:20;12.00;;;8.27;;
3427;SDS011;1727;42.624;23.406;2023-05-23T07:13:47;11.30;;;9.10;;
3427;SDS011;1727;42.624;23.406;2023-05-23T07:16:14;15.93;;;9.80;;
3427;SDS011;1727;42.624;23.406;2023-05-23T07:18:41;14.33;;;9.10;;
3427;SDS011;1727;42.624;23.406;2023-05-23T07:21:08;13.93;;;9.67;;
3427;SDS011;1727;42.624;23.406;2023-05-23T07:23:34;14.93;;;10.17;;
3427;SDS011;1727;42.624;23.406;2023-05-23T07:26:01;14.63;;;9.83;;
3427;SDS011;1727;42.624;23.406;2023-05-23T07:28:30;11.97;;;9.87;;
3427;SDS011;1727;42.624;23.406;2023-05-23T07:30:57;17.27;;;9.67;;
3427;SDS011;1727;42.624;23.406;2023-05-23T07:33:23;13.40;;;10.80;;
3427;SDS011;1727;42.624;23.406;2023-05-23T07:35:50;14.37;;;9.27;;
3427;SDS011;1727;42.624;23.406;2023-05-23T07:38:17;11.27;;;8.80;;
3427;SDS011;1727;42.624;23.406;2023-05-23T07:40:44;12.00;;;8.80;;
3427;SDS011;1727;42.624;23.406;2023-05-23T07:43:10;12.40;;;10.70;;
3427;SDS011;1727;42.624;23.406;2023-05-23T07:45:38;10.70;;;9.30;;
3427;SDS011;1727;42.624;23.406;2023-05-23T07:48:05;12.77;;;9.33;;
3427;SDS011;1727;42.624;23.406;2023-05-23T07:50:34;12.50;;;9.93;;
3427;SDS011;1727;42.624;23.406;2023-05-23T07:53:00;11.77;;;9.63;;
3427;SDS011;1727;42.624;23.406;2023-05-23T07:55:27;11.17;;;9.30;;
3427;SDS011;1727;42.624;23.406;2023-05-23T07:57:54;11.20;;;7.27;;
3427;SDS011;1727;42.624;23.406;2023-05-23T08:00:21;13.50;;;8.57;;
3427;SDS011;1727;42.624;23.406;2023-05-23T08:02:49;11.40;;;8.07;;
3427;SDS011;1727;42.624;23.406;2023-05-23T08:05:16;9.43;;;7.77;;
3427;SDS011;1727;42.624;23.406;2023-05-23T08:07:46;9.00;;;8.10;;
3427;SDS011;1727;42.624;23.406;2023-05-23T08:10:12;11.10;;;9.03;;
3427;SDS011;1727;42.624;23.406;2023-05-23T08:12:39;8.10;;;7.23;;
3427;SDS011;1727;42.624;23.406;2023-05-23T08:15:06;10.00;;;7.40;;
3427;SDS011;1727;42.624;23.406;2023-05-23T08:17:34;10.23;;;7.87;;
3427;SDS011;1727;42.624;23.406;2023-05-23T08:20:03;12.80;;;7.97;;
3427;SDS011;1727;42.624;23.406;2023-05-23T08:22:30;15.67;;;8.47;;
3427;SDS011;1727;42.624;23.406;2023-05-23T08:24:56;9.93;;;7.87;;
3427;SDS011;1727;42.624;23.406;2023-05-23T08:27:23;11.77;;;8.20;;
3427;SDS011;1727;42.624;23.406;2023-05-23T08:29:50;12.07;;;8.13;;
3427;SDS011;1727;42.624;23.406;2023-05-23T08:32:17;9.83;;;8.80;;
3427;SDS011;1727;42.624;23.406;2023-05-23T08:34:43;9.30;;;8.27;;
3427;SDS011;1727;42.624;23.406;2023-05-23T08:37:11;10.83;;;7.90;;
3427;SDS011;1727;42.624;23.406;2023-05-23T08:39:38;14.67;;;9.70;;
3427;SDS011;1727;42.624;23.406;2023-05-23T08:42:05;13.20;;;8.30;;
3427;SDS011;1727;42.624;23.406;2023-05-23T08:44:32;9.23;;;8.30;;
3427;SDS011;1727;42.624;23.406;2023-05-23T08:47:00;9.13;;;8.07;;
3427;SDS011;1727;42.624;23.406;2023-05-23T08:49:30;12.73;;;9.83;;
3427;SDS011;1727;42.624;23.406;2023-05-23T08:51:59;11.70;;;9.17;;
3427;SDS011;1727;42.624;23.406;2023-05-23T08:54:29;13.60;;;9.10;;
3427;SDS011;1727;42.624;23.406;2023-05-23T08:56:56;13.43;;;9.33;;
3427;SDS011;1727;42.624;23.406;2023-05-23T08:59:24;11.23;;;7.90;;
3427;SDS011;1727;42.624;23.406;2023-05-23T09:01:52;11.60;;;7.90;;
3427;SDS011;1727;42.624;23.406;2023-05-23T09:04:21;10.53;;;9.13;;
3427;SDS011;1727;42.624;23.406;2023-05-23T09:06:48;12.27;;;7.60;;
3427;SDS011;1727;42.624;23.406;2023-05-23T09:09:14;9.10;;;7.90;;
3427;SDS011;1727;42.624;23.406;2023-05-23T09:11:43;11.43;;;7.63;;
3427;SDS011;1727;42.624;23.406;2023-05-23T09:14:11;11.10;;;7.73;;
3427;SDS011;1727;42.624;23.406;2023-05-23T09:16:38;7.87;;;7.10;;
3427;SDS011;1727;42.624;23.406;2023-05-23T09:19:12;7.73;;;5.93;;
3427;SDS011;1727;42.624;23.406;2023-05-23T09:21:41;7.30;;;5.90;;
3427;SDS011;1727;42.624;23.406;2023-05-23T09:24:09;6.70;;;5.63;;
3427;SDS011;1727;42.624;23.406;2023-05-23T09:26:36;5.67;;;4.60;;
3427;SDS011;1727;42.624;23.406;2023-05-23T09:29:05;9.27;;;4.77;;
3427;SDS011;1727;42.624;23.406;2023-05-23T09:31:32;5.67;;;5.10;;
3427;SDS011;1727;42.624;23.406;2023-05-23T09:33:59;6.03;;;5.43;;
3427;SDS011;1727;42.624;23.406;2023-05-23T09:36:26;7.13;;;4.83;;
3427;SDS011;1727;42.624;23.406;2023-05-23T09:38:59;5.30;;;4.80;;
3427;SDS011;1727;42.624;23.406;2023-05-23T09:41:29;5.53;;;4.43;;
3427;SDS011;1727;42.624;23.406;2023-05-23T09:43:58;8.70;;;5.20;;
3427;SDS011;1727;42.624;23.406;2023-05-23T09:46:27;4.97;;;4.57;;
3427;SDS011;1727;42.624;23.406;2023-05-23T09:48:55;7.93;;;4.87;;
3427;SDS011;1727;42.624;23.406;2023-05-23T09:51:24;8.40;;;5.27;;
3427;SDS011;1727;42.624;23.406;2023-05-23T09:53:52;5.57;;;5.07;;
3427;SDS011;1727;42.624;23.406;2023-05-23T09:56:19;7.23;;;4.73;;
3427;SDS011;1727;42.624;23.406;2023-05-23T09:58:48;5.90;;;4.77;;
3427;SDS011;1727;42.624;23.406;2023-05-23T10:01:16;5.83;;;4.93;;
3427;SDS011;1727;42.624;23.406;2023-05-23T10:03:47;5.10;;;4.60;;
3427;SDS011;1727;42.624;23.406;2023-05-23T10:06:16;5.60;;;5.13;;
3427;SDS011;1727;42.624;23.406;2023-05-23T10:08:49;4.40;;;4.10;;
3427;SDS011;1727;42.624;23.406;2023-05-23T10:14:17;6.90;;;5.13;;
3427;SDS011;1727;42.624;23.406;2023-05-23T10:16:48;7.27;;;4.33;;
3427;SDS011;1727;42.624;23.406;2023-05-23T10:19:26;5.43;;;4.97;;
3427;SDS011;1727;42.624;23.406;2023-05-23T10:21:57;5.00;;;4.40;;
3427;SDS011;1727;42.624;23.406;2023-05-23T10:24:26;4.70;;;4.23;;
3427;SDS011;1727;42.624;23.406;2023-05-23T10:26:54;7.53;;;4.60;;
3427;SDS011;1727;42.624;23.406;2023-05-23T10:29:21;6.77;;;4.80;;
3427;SDS011;1727;42.624;23.406;2023-05-23T10:31:48;5.60;;;5.10;;
3427;SDS011;1727;42.624;23.406;2023-05-23T10:34:18;6.37;;;4.97;;
3427;SDS011;1727;42.624;23.406;2023-05-23T10:36:54;6.83;;;4.83;;
3427;SDS011;1727;42.624;23.406;2023-05-23T10:39:29;5.83;;;4.60;;
3427;SDS011;1727;42.624;23.406;2023-05-23T10:42:03;5.50;;;5.00;;
3427;SDS011;1727;42.624;23.406;2023-05-23T10:44:36;5.70;;;4.00;;
3427;SDS011;1727;42.624;23.406;2023-05-23T10:47:03;6.93;;;4.33;;
3427;SDS011;1727;42.624;23.406;2023-05-23T10:49:38;7.80;;;4.53;;
3427;SDS011;1727;42.624;23.406;2023-05-23T10:52:07;8.03;;;4.70;;
3427;SDS011;1727;42.624;23.406;2023-05-23T10:54:35;8.13;;;4.40;;
3427;SDS011;1727;42.624;23.406;2023-05-23T10:57:08;4.80;;;4.30;;
3427;SDS011;1727;42.624;23.406;2023-05-23T10:59:35;4.60;;;4.20;;
3427;SDS011;1727;42.624;23.406;2023-05-23T11:02:03;4.20;;;3.90;;
3427;SDS011;1727;42.624;23.406;2023-05-23T11:04:37;3.73;;;3.50;;
3427;SDS011;1727;42.624;23.406;2023-05-23T11:07:04;7.40;;;4.07;;
3427;SDS011;1727;42.624;23.406;2023-05-23T11:09:32;4.83;;;4.33;;
3427;SDS011;1727;42.624;23.406;2023-05-23T11:11:59;9.03;;;4.90;;
3427;SDS011;1727;42.624;23.406;2023-05-23T11:14:33;4.83;;;4.23;;
3427;SDS011;1727;42.624;23.406;2023-05-23T11:17:17;4.10;;;3.80;;
3427;SDS011;1727;42.624;23.406;2023-05-23T11:19:54;4.20;;;3.90;;
3427;SDS011;1727;42.624;23.406;2023-05-23T11:22:26;4.70;;;3.97;;
3427;SDS011;1727;42.624;23.406;2023-05-23T11:24:55;4.50;;;4.10;;
3427;SDS011;1727;42.624;23.406;2023-05-23T11:27:26;6.33;;;4.43;;
3427;SDS011;1727;42.624;23.406;2023-05-23T11:29:57;7.43;;;4.17;;
3427;SDS011;1727;42.624;23.406;2023-05-23T11:32:26;4.20;;;3.80;;
3427;SDS011;1727;42.624;23.406;2023-05-23T11:34:55;6.07;;;3.93;;
3427;SDS011;1727;42.624;23.406;2023-05-23T11:37:24;5.83;;;4.23;;
3427;SDS011;1727;42.624;23.406;2023-05-23T11:39:52;7.73;;;4.43;;
3427;SDS011;1727;42.624;23.406;2023-05-23T11:42:20;5.07;;;4.57;;
3427;SDS011;1727;42.624;23.406;2023-05-23T11:44:48;5.10;;;4.60;;
3427;SDS011;1727;42.624;23.406;2023-05-23T11:47:15;9.93;;;3.97;;
3427;SDS011;1727;42.624;23.406;2023-05-23T11:49:43;8.10;;;4.30;;
3427;SDS011;1727;42.624;23.406;2023-05-23T11:52:11;7.93;;;4.60;;
3427;SDS011;1727;42.624;23.406;2023-05-23T11:54:39;9.57;;;4.83;;
3427;SDS011;1727;42.624;23.406;2023-05-23T11:57:06;6.40;;;3.77;;
3427;SDS011;1727;42.624;23.406;2023-05-23T11:59:34;5.30;;;4.10;;
3427;SDS011;1727;42.624;23.406;2023-05-23T12:02:02;8.30;;;4.33;;
3427;SDS011;1727;42.624;23.406;2023-05-23T12:04:28;6.80;;;4.30;;
3427;SDS011;1727;42.624;23.406;2023-05-23T12:06:55;6.80;;;4.57;;
3427;SDS011;1727;42.624;23.406;2023-05-23T12:09:22;6.13;;;3.93;;
3427;SDS011;1727;42.624;23.406;2023-05-23T12:11:49;5.43;;;4.30;;
3427;SDS011;1727;42.624;23.406;2023-05-23T12:14:16;4.83;;;4.33;;
3427;SDS011;1727;42.624;23.406;2023-05-23T12:16:45;4.60;;;4.20;;
3427;SDS011;1727;42.624;23.406;2023-05-23T12:19:12;9.23;;;5.20;;
3427;SDS011;1727;42.624;23.406;2023-05-23T12:21:43;4.20;;;3.90;;
3427;SDS011;1727;42.624;23.406;2023-05-23T12:24:13;4.77;;;4.10;;
3427;SDS011;1727;42.624;23.406;2023-05-23T12:26:48;4.60;;;4.20;;
3427;SDS011;1727;42.624;23.406;2023-05-23T12:29:17;5.27;;;4.13;;
3427;SDS011;1727;42.624;23.406;2023-05-23T12:31:47;6.57;;;4.73;;
3427;SDS011;1727;42.624;23.406;2023-05-23T12:34:15;5.13;;;4.73;;
3427;SDS011;1727;42.624;23.406;2023-05-23T12:36:42;9.47;;;4.77;;
3427;SDS011;1727;42.624;23.406;2023-05-23T12:39:10;12.23;;;4.87;;
3427;SDS011;1727;42.624;23.406;2023-05-23T12:41:37;6.00;;;4.40;;
3427;SDS011;1727;42.624;23.406;2023-05-23T12:44:07;5.77;;;4.47;;
3427;SDS011;1727;42.624;23.406;2023-05-23T12:46:33;9.80;;;5.30;;
3427;SDS011;1727;42.624;23.406;2023-05-23T12:49:02;6.20;;;4.23;;
3427;SDS011;1727;42.624;23.406;2023-05-23T12:51:29;9.70;;;4.73;;
3427;SDS011;1727;42.624;23.406;2023-05-23T12:53:56;4.83;;;4.43;;
3427;SDS011;1727;42.624;23.406;2023-05-23T12:56:23;9.80;;;5.33;;
3427;SDS011;1727;42.624;23.406;2023-05-23T12:58:50;4.87;;;4.37;;
3427;SDS011;1727;42.624;23.406;2023-05-23T13:01:17;4.37;;;3.97;;
3427;SDS011;1727;42.624;23.406;2023-05-23T13:03:45;4.50;;;4.10;;
3427;SDS011;1727;42.624;23.406;2023-05-23T13:06:13;9.57;;;4.23;;
3427;SDS011;1727;42.624;23.406;2023-05-23T13:08:40;4.83;;;4.43;;
3427;SDS011;1727;42.624;23.406;2023-05-23T13:11:07;4.60;;;4.03;;
3427;SDS011;1727;42.624;23.406;2023-05-23T13:13:34;6.40;;;4.50;;
3427;SDS011;1727;42.624;23.406;2023-05-23T13:16:01;5.27;;;4.77;;
3427;SDS011;1727;42.624;23.406;2023-05-23T13:18:27;4.63;;;4.23;;
3427;SDS011;1727;42.624;23.406;2023-05-23T13:20:54;5.07;;;4.57;;
3427;SDS011;1727;42.624;23.406;2023-05-23T13:23:23;5.20;;;4.70;;
3427;SDS011;1727;42.624;23.406;2023-05-23T13:25:50;5.80;;;4.50;;
3427;SDS011;1727;42.624;23.406;2023-05-23T13:28:17;5.77;;;5.27;;
3427;SDS011;1727;42.624;23.406;2023-05-23T13:30:44;10.07;;;3.90;;
3427;SDS011;1727;42.624;23.406;2023-05-23T13:33:11;4.50;;;4.20;;
3427;SDS011;1727;42.624;23.406;2023-05-23T13:35:38;5.70;;;4.63;;
3427;SDS011;1727;42.624;23.406;2023-05-23T13:38:05;5.13;;;4.40;;
3427;SDS011;1727;42.624;23.406;2023-05-23T13:40:33;4.57;;;4.17;;
3427;SDS011;1727;42.624;23.406;2023-05-23T13:43:00;4.23;;;3.90;;
3427;SDS011;1727;42.624;23.406;2023-05-23T13:45:27;4.57;;;4.10;;
3427;SDS011;1727;42.624;23.406;2023-05-23T13:47:55;5.53;;;4.50;;
3427;SDS011;1727;42.624;23.406;2023-05-23T13:50:21;5.33;;;4.50;;
3427;SDS011;1727;42.624;23.406;2023-05-23T13:52:48;4.90;;;4.50;;
3427;SDS011;1727;42.624;23.406;2023-05-23T13:55:15;5.37;;;3.93;;
3427;SDS011;1727;42.624;23.406;2023-05-23T13:57:44;8.83;;;4.27;;
3427;SDS011;1727;42.624;23.406;2023-05-23T14:00:11;10.80;;;4.67;;
3427;SDS011;1727;42.624;23.406;2023-05-23T14:02:38;12.60;;;4.60;;
3427;SDS011;1727;42.624;23.406;2023-05-23T14:05:05;4.83;;;4.40;;
3427;SDS011;1727;42.624;23.406;2023-05-23T14:07:32;6.70;;;4.47;;
3427;SDS011;1727;42.624;23.406;2023-05-23T14:09:59;5.90;;;4.53;;
3427;SDS011;1727;42.624;23.406;2023-05-23T14:12:26;5.40;;;4.20;;
3427;SDS011;1727;42.624;23.406;2023-05-23T14:14:54;5.40;;;4.50;;
3427;SDS011;1727;42.624;23.406;2023-05-23T14:17:21;6.40;;;4.30;;
3427;SDS011;1727;42.624;23.406;2023-05-23T14:19:47;6.70;;;5.10;;
3427;SDS011;1727;42.624;23.406;2023-05-23T14:22:14;5.97;;;4.37;;
3427;SDS011;1727;42.624;23.406;2023-05-23T14:24:41;4.30;;;3.90;;
3427;SDS011;1727;42.624;23.406;2023-05-23T14:27:08;6.73;;;4.17;;
3427;SDS011;1727;42.624;23.406;2023-05-23T14:29:34;4.00;;;3.40;;
3427;SDS011;1727;42.624;23.406;2023-05-23T14:32:03;4.40;;;3.97;;
3427;SDS011;1727;42.624;23.406;2023-05-23T14:34:30;5.07;;;3.70;;
3427;SDS011;1727;42.624;23.406;2023-05-23T14:36:56;3.73;;;3.43;;
3427;SDS011;1727;42.624;23.406;2023-05-23T14:39:23;5.50;;;4.83;;
3427;SDS011;1727;42.624;23.406;2023-05-23T14:41:50;5.40;;;4.20;;
3427;SDS011;1727;42.624;23.406;2023-05-23T14:44:17;5.80;;;4.60;;
3427;SDS011;1727;42.624;23.406;2023-05-23T14:46:44;5.00;;;4.40;;
3427;SDS011;1727;42.624;23.406;2023-05-23T14:49:14;5.23;;;3.50;;
3427;SDS011;1727;42.624;23.406;2023-05-23T14:51:42;7.47;;;4.70;;
3427;SDS011;1727;42.624;23.406;2023-05-23T14:54:09;4.90;;;3.60;;
3427;SDS011;1727;42.624;23.406;2023-05-23T14:56:36;10.90;;;4.70;;
3427;SDS011;1727;42.624;23.406;2023-05-23T14:59:05;5.10;;;4.60;;
3427;SDS011;1727;42.624;23.406;2023-05-23T15:01:31;7.23;;;5.40;;